Date,TemperatureHighF,TemperatureAvgF,TemperatureLowF,DewpointHighF,DewpointAvgF,DewpointLowF,HumidityHigh,HumidityAvg,HumidityLow,PressureMaxIn,PressureMinIn,WindSpeedMaxMPH,WindSpeedAvgMPH,GustSpeedMaxMPH,PrecipitationSumIn
2013-1-1,34,31,28,31,26,15,97,86,46,0.00,40.00,10,5,25,0.03
2013-1-2,33,26,20,25,16,8,95,66,40,0.00,40.00,7,4,16,0.12
2013-1-3,34,23,16,16,10,2,75,57,35,0.00,40.00,7,4,16,0.10
2013-1-4,28,24,20,18,16,14,80,73,65,0.00,40.00,8,6,19,0.03
2013-1-5,42,30,21,18,15,10,79,56,32,0.00,40.00,9,5,19,0.15
2013-1-6,35,32,30,26,23,18,84,67,52,0.00,40.00,9,6,18,0.01
2013-1-7,42,30,22,26,21,18,90,70,44,0.00,40.00,8,4,20,0.00
2013-1-8,48,36,25,25,21,16,83,55,38,0.00,40.00,6,4,9,0.00
2013-1-9,50,41,34,43,31,17,98,68,42,0.00,40.00,8,5,16,0.00
2013-1-10,46,40,34,33,29,24,85,65,45,0.00,40.00,5,3,10,0.00
2013-1-11,47,40,36,47,37,27,100,88,56,0.00,40.00,8,5,16,0.12
2013-1-12,67,57,47,54,51,47,100,82,58,0.00,40.00,8,5,15,0.01
2013-1-13,62,57,52,55,52,48,98,84,66,0.00,40.00,9,6,16,0.00
2013-1-14,55,45,35,55,44,35,100,94,82,0.00,40.00,9,5,17,0.71
2013-1-15,38,36,33,38,36,33,100,100,100,0.00,40.00,5,3,10,1.17
2013-1-16,41,35,32,41,35,32,100,100,96,0.00,40.00,9,4,14,1.17
2013-1-17,35,31,28,35,23,15,100,74,52,0.00,40.00,9,4,15,0.01
2013-1-18,36,27,19,20,10,-3,78,54,20,0.00,40.00,12,6,28,0.01
2013-1-19,48,34,23,19,16,10,80,49,26,0.00,40.00,9,7,16,0.00
2013-1-20,43,36,26,26,15,3,67,43,27,0.00,40.00,10,4,22,0.00
2013-1-21,36,26,16,10,5,3,58,42,26,0.00,40.00,11,5,29,0.00
2013-1-22,14,8,2,5,-6,-9,67,54,38,0.00,40.00,10,6,26,0.00
2013-1-23,19,10,3,14,-2,-13,90,58,24,0.00,40.00,10,5,23,0.00
2013-1-24,16,11,5,14,3,-3,91,70,49,0.00,40.00,10,6,20,0.00
2013-1-25,23,12,4,22,6,-3,96,78,57,0.00,40.00,9,4,12,0.00
2013-1-26,25,21,18,22,17,13,93,83,74,0.00,40.00,8,6,22,0.00
2013-1-27,35,24,14,21,16,12,90,71,50,0.00,40.00,6,2,9,0.16
2013-1-28,51,40,28,47,37,21,100,90,74,0.00,40.00,4,1,9,0.30
2013-1-29,64,54,46,54,48,45,100,84,63,0.00,40.00,0,0,0,0.02
2013-1-30,60,53,46,56,51,45,100,93,78,0.00,40.00,0,0,0,2.13
2013-1-31,44,23,20,44,16,11,100,75,62,0.00,40.00,13,9,33,0.97
2013-2-1,22,11,4,21,4,-3,96,73,55,0.00,40.00,9,6,24,0.00
2013-2-2,23,15,6,20,8,-2,96,76,48,0.00,40.00,8,5,14,0.01
2013-2-3,26,22,17,21,16,8,96,81,67,0.00,40.00,10,7,25,0.01
2013-2-4,32,22,13,30,15,7,100,74,53,0.00,40.00,10,6,25,0.10
2013-2-5,37,34,30,33,31,29,100,89,73,0.00,40.00,10,2,23,0.09
2013-2-6,39,32,26,32,25,22,93,77,55,0.00,40.00,7,2,20,0.01
2013-2-7,36,30,26,30,26,21,99,85,72,0.00,40.00,5,2,9,0.00
2013-2-8,37,30,23,36,28,21,100,96,89,0.00,40.00,11,3,27,0.01
2013-2-9,38,26,17,20,12,10,87,58,32,0.00,40.00,14,5,24,0.01
2013-2-10,42,32,22,28,14,5,89,49,34,0.00,40.00,4,1,6,0.00
2013-2-11,54,42,31,48,31,13,100,75,27,0.00,40.00,0,0,0,0.07
2013-2-12,47,36,29,21,17,12,71,48,27,0.00,40.00,1,0,11,0.01
2013-2-13,37,32,27,32,22,14,100,71,39,0.00,40.00,6,1,17,0.02
2013-2-14,40,31,23,27,23,20,98,72,51,0.00,40.00,7,2,19,0.17
2013-2-15,48,34,27,31,28,23,100,79,50,0.00,40.00,5,1,12,0.05
2013-2-16,27,23,16,24,15,9,89,73,55,0.00,40.00,7,5,16,0.01
2013-2-17,17,12,6,10,1,-5,81,62,45,0.00,40.00,11,8,31,0.01
2013-2-18,44,28,11,21,10,-2,65,48,34,0.00,40.00,7,3,15,0.00
2013-2-19,38,32,26,38,24,11,100,74,52,0.00,40.00,12,2,24,0.19
2013-2-20,26,20,15,13,9,7,75,62,54,0.00,40.00,10,8,31,0.05
2013-2-21,38,22,10,17,10,5,80,61,36,0.00,40.00,10,4,19,0.00
2013-2-22,30,27,23,29,23,13,100,86,53,0.00,40.00,7,4,15,0.03
2013-2-23,55,39,28,41,32,26,100,80,37,0.00,40.00,5,1,7,0.05
2013-2-24,41,34,24,32,23,17,88,67,39,0.00,40.00,9,2,22,0.02
2013-2-25,42,28,19,19,15,12,84,61,33,0.00,40.00,9,5,15,0.00
2013-2-26,36,30,26,36,25,15,100,81,59,0.00,40.00,9,5,24,0.43
2013-2-27,36,34,31,35,31,27,100,88,73,0.00,40.00,8,6,20,0.10
2013-2-28,30,27,25,30,23,20,100,86,68,0.00,40.00,10,6,21,0.02
2013-3-1,29,26,23,25,21,17,91,81,72,0.00,40.00,8,6,19,0.01
2013-3-2,23,21,19,18,15,13,88,79,69,0.00,40.00,8,5,17,0.00
2013-3-3,23,19,16,14,12,7,86,74,64,0.00,40.00,9,6,21,0.00
2013-3-4,34,23,14,12,10,7,79,58,32,0.00,40.00,8,6,20,0.05
2013-3-5,40,32,27,35,23,3,100,72,31,0.00,40.00,8,4,14,0.01
2013-3-6,32,27,23,29,26,21,100,93,78,0.00,40.00,11,5,19,0.13
2013-3-7,31,28,26,27,24,21,100,87,67,0.00,40.00,11,6,17,0.07
2013-3-8,34,28,24,25,21,17,95,73,57,0.00,40.00,12,8,19,0.19
2013-3-9,55,38,21,26,19,15,93,55,23,0.00,40.00,6,4,10,0.30
2013-3-10,58,46,38,28,24,19,46,41,31,0.00,40.00,9,6,16,0.20
2013-3-11,49,46,42,48,33,25,100,62,44,0.00,40.00,14,9,26,0.07
2013-3-12,49,38,29,49,35,23,100,88,68,0.00,40.00,13,7,23,0.33
2013-3-13,35,28,20,28,20,13,97,75,58,0.00,40.00,10,7,24,0.03
2013-3-14,35,25,17,17,12,9,90,60,38,0.00,40.00,10,8,23,0.02
2013-3-15,52,38,25,30,20,9,58,50,40,0.00,40.00,11,6,23,0.00
2013-3-16,60,47,38,49,42,31,100,82,57,0.00,40.00,9,6,21,0.22
2013-3-17,44,37,33,39,35,33,100,93,82,0.00,40.00,7,4,14,0.06
2013-3-18,32,29,26,32,29,26,100,100,99,0.00,40.00,8,4,17,0.05
2013-3-19,46,36,30,35,18,-4,100,58,15,0.00,40.00,18,9,37,0.33
2013-3-20,41,32,24,26,8,1,97,39,19,0.00,40.00,14,8,31,0.14
2013-3-21,25,18,12,22,10,4,93,72,54,0.00,40.00,9,6,19,0.00
2013-3-22,37,24,14,11,9,6,74,54,34,0.00,40.00,8,5,17,0.00
2013-3-23,46,33,23,16,11,8,56,41,24,0.00,40.00,6,4,15,0.00
2013-3-24,33,30,26,28,20,10,99,69,38,0.00,40.00,5,4,14,0.00
2013-3-25,31,27,25,27,24,20,99,88,70,0.00,40.00,10,5,23,0.04
2013-3-26,35,29,25,26,24,20,97,82,58,0.00,40.00,8,6,17,0.18
2013-3-27,34,27,24,25,22,19,97,81,64,0.00,40.00,9,7,20,0.09
2013-3-28,35,33,31,24,22,21,68,64,56,0.00,40.00,7,5,21,0.17
2013-3-29,47,38,31,24,22,19,72,53,32,0.00,40.00,7,5,15,0.02
2013-3-30,55,42,32,24,20,-100,71,46,25,0.00,40.00,8,4,16,0.01
2013-3-31,46,43,38,46,36,21,100,80,40,0.00,40.00,8,6,17,0.34
2013-4-1,45,38,30,40,32,20,100,81,66,0.00,40.00,11,7,27,0.11
2013-4-2,40,30,23,18,11,6,65,47,25,0.00,40.00,8,5,19,0.01
2013-4-3,42,31,23,13,8,3,61,38,20,0.00,40.00,8,6,20,0.00
2013-4-4,40,31,25,30,14,5,100,53,31,0.00,40.00,8,4,17,0.00
2013-4-5,54,42,30,35,27,21,100,61,31,0.00,40.00,8,5,17,0.42
2013-4-6,60,44,30,26,18,5,64,39,14,0.00,40.00,9,6,17,0.08
2013-4-7,66,53,41,36,29,19,51,40,30,0.00,40.00,11,7,21,0.00
2013-4-8,74,61,50,42,39,34,66,46,29,0.00,40.00,9,6,20,0.00
2013-4-9,77,66,58,49,45,42,66,49,34,0.00,40.00,9,6,17,0.00
2013-4-10,83,72,62,51,45,39,61,39,27,0.00,40.00,9,7,19,0.00
2013-4-11,78,68,60,50,46,40,65,47,26,0.00,40.00,11,7,24,0.00
2013-4-12,66,58,44,59,47,31,100,73,30,0.00,40.00,12,8,27,0.76
2013-4-13,61,49,38,32,27,19,75,46,22,0.00,40.00,11,7,27,0.01
2013-4-14,69,55,42,33,29,21,58,38,18,0.00,40.00,9,6,19,0.00
2013-4-15,60,49,46,49,46,32,100,91,35,0.00,40.00,8,6,17,0.51
2013-4-16,77,60,49,56,52,49,100,80,42,0.00,40.00,8,6,15,0.01
2013-4-17,77,64,55,59,55,50,100,77,40,0.00,40.00,8,4,12,0.26
2013-4-18,68,62,57,59,55,51,100,80,61,0.00,40.00,12,8,25,0.00
2013-4-19,63,55,39,60,51,32,100,85,72,0.00,40.00,15,11,28,0.56
2013-4-20,50,40,31,34,22,17,82,51,29,0.00,40.00,10,7,25,0.01
2013-4-21,56,42,30,27,22,19,66,48,26,0.00,40.00,9,6,21,0.00
2013-4-22,56,43,32,26,22,16,66,45,22,0.00,40.00,8,5,15,0.00
2013-4-23,70,51,35,40,31,26,81,51,20,0.00,40.00,9,4,15,0.00
2013-4-24,72,56,42,51,44,37,88,67,38,0.00,40.00,12,7,33,0.02
2013-4-25,58,44,31,35,23,6,86,52,13,0.00,40.00,10,6,24,0.02
2013-4-26,64,50,37,29,24,20,63,39,21,0.00,40.00,7,4,13,0.00
2013-4-27,67,54,45,41,28,-100,67,40,22,0.00,40.00,9,5,18,0.00
2013-4-28,51,47,45,48,45,40,100,92,66,0.00,40.00,12,8,22,0.47
2013-4-29,62,51,45,54,48,45,100,92,66,0.00,40.00,8,4,15,0.07
2013-4-30,71,59,51,52,50,49,100,77,48,0.00,40.00,7,5,19,0.01
2013-5-1,69,57,49,51,44,31,100,68,35,0.00,40.00,7,4,15,0.00
2013-5-2,72,58,49,44,38,30,66,48,34,0.00,40.00,10,6,19,0.00
2013-5-3,63,52,44,41,38,32,88,61,34,0.00,40.00,9,5,24,0.00
2013-5-4,62,50,37,40,34,23,81,59,22,0.00,40.00,9,6,20,0.00
2013-5-5,63,51,41,42,30,15,80,50,18,0.00,40.00,9,6,21,0.00
2013-5-6,55,49,45,51,47,42,100,93,79,0.00,40.00,10,6,23,0.87
2013-5-7,54,49,46,54,49,46,100,100,96,0.00,40.00,9,4,16,1.33
2013-5-8,58,49,45,52,48,45,100,96,75,0.00,40.00,5,3,10,0.81
2013-5-9,71,58,48,54,48,42,100,74,36,0.00,40.00,9,5,18,0.04
2013-5-10,75,61,52,58,52,48,100,76,40,0.00,40.00,9,5,22,0.33
2013-5-11,69,56,53,58,53,-100,100,93,55,0.00,40.00,8,5,18,0.68
2013-5-12,51,45,39,48,32,24,96,62,38,0.00,40.00,9,6,21,0.17
2013-5-13,48,39,34,34,27,22,95,64,35,0.00,40.00,8,4,19,0.01
2013-5-14,63,47,29,33,29,24,100,58,22,0.00,40.00,7,4,14,0.00
2013-5-15,83,67,53,52,45,31,80,49,24,0.00,40.00,11,7,31,0.00
2013-5-16,73,58,55,58,29,-100,100,64,46,0.00,40.00,9,5,19,0.11
2013-5-17,74,60,54,60,51,-100,100,87,53,0.00,40.00,5,3,12,0.12
2013-5-18,68,60,56,63,59,56,100,96,76,0.00,40.00,7,3,16,0.11
2013-5-19,60,58,57,60,58,57,100,100,100,0.00,40.00,7,5,13,0.11
2013-5-20,77,65,58,66,62,58,100,91,63,0.00,40.00,5,3,14,0.02
2013-5-21,84,70,58,67,60,55,100,76,38,0.00,40.00,5,3,13,0.01
2013-5-22,78,65,57,65,59,52,100,84,49,0.00,40.00,7,3,18,0.24
2013-5-23,76,62,57,63,57,50,100,87,44,0.00,40.00,6,4,19,0.19
2013-5-24,56,45,40,53,40,30,100,84,56,0.00,40.00,8,5,23,0.03
2013-5-25,58,45,31,33,28,19,91,56,26,0.00,40.00,8,5,22,0.02
2013-5-26,65,52,41,35,27,17,75,43,16,0.00,40.00,7,3,16,0.00
2013-5-27,66,53,41,47,38,28,68,56,44,0.00,40.00,5,3,9,0.00
2013-5-28,78,66,54,57,53,48,96,66,39,0.00,40.00,6,4,17,0.00
2013-5-29,82,70,60,60,56,51,96,64,35,0.00,40.00,6,4,15,0.00
2013-5-30,83,72,59,61,57,53,99,65,36,0.00,40.00,6,4,13,0.00
2013-5-31,83,70,59,61,58,52,95,69,36,0.00,40.00,7,4,16,0.00
2013-6-1,84,71,61,63,58,-100,91,68,37,0.00,40.00,8,5,18,0.00
2013-6-2,73,66,61,65,61,58,100,83,71,0.00,40.00,6,4,14,0.06
2013-6-3,72,62,57,63,58,56,100,87,63,0.00,40.00,5,3,15,0.34
2013-6-4,76,63,52,56,51,43,100,70,33,0.00,40.00,6,3,12,0.01
2013-6-5,74,63,56,62,57,41,100,81,56,0.00,40.00,7,4,16,0.00
2013-6-6,63,60,57,63,59,57,100,98,89,0.00,40.00,7,4,15,0.83
2013-6-7,67,61,56,67,61,56,100,100,100,0.00,40.00,4,2,10,0.42
2013-6-8,77,63,53,61,55,53,100,78,47,0.00,40.00,5,3,11,0.01
2013-6-9,80,67,56,64,58,47,100,76,32,0.00,40.00,7,4,13,0.10
2013-6-10,69,64,60,69,62,57,100,96,82,0.00,40.00,6,4,17,0.72
2013-6-11,72,63,57,63,60,57,100,92,70,0.00,40.00,5,4,13,0.41
2013-6-12,82,70,63,70,65,62,100,85,58,0.00,40.00,7,4,15,0.01
2013-6-13,69,64,56,69,63,54,100,98,93,0.00,40.00,9,5,22,1.60
2013-6-14,67,59,54,54,53,51,99,83,63,0.00,40.00,5,4,14,0.02
2013-6-15,76,63,50,58,53,50,100,74,42,0.00,40.00,5,2,12,0.00
2013-6-16,73,64,55,65,60,54,100,86,68,0.00,40.00,7,4,16,0.32
2013-6-17,80,68,60,68,63,60,100,86,50,0.00,40.00,5,4,11,0.33
2013-6-18,69,63,59,65,62,59,100,97,83,0.00,40.00,3,2,7,0.74
2013-6-19,79,65,56,63,59,51,100,84,42,0.00,40.00,5,3,9,0.28
2013-6-20,78,66,59,64,60,55,100,84,47,0.00,40.00,5,3,12,0.29
2013-6-22,81,74,66,64,60,56,81,61,50,0.00,40.00,5,3,9,0.00
2013-6-23,83,70,61,68,62,58,100,79,47,0.00,40.00,5,2,11,0.00
2013-6-24,81,68,60,69,64,60,100,88,57,0.00,40.00,4,2,11,0.17
2013-6-25,82,70,61,70,65,61,100,85,56,0.00,40.00,5,3,11,0.10
2013-6-26,78,71,64,69,66,61,100,85,56,0.00,40.00,6,4,15,0.01
2013-6-27,70,66,63,69,65,63,100,98,91,0.00,40.00,7,4,14,0.03
2013-6-28,79,69,62,67,61,53,100,79,43,0.00,40.00,10,6,24,0.02
2013-6-29,76,66,55,61,58,55,100,80,52,0.00,40.00,6,4,14,0.05
2013-6-30,83,69,59,68,61,56,100,80,40,0.00,40.00,9,3,18,0.01
2013-7-1,74,66,59,68,63,59,100,92,75,0.00,40.00,6,3,13,0.03
2013-7-2,72,67,63,68,66,63,100,96,80,0.00,40.00,5,4,15,0.08
2013-7-3,74,66,63,70,66,63,100,98,86,0.00,40.00,5,3,12,0.47
2013-7-4,78,70,63,73,68,63,100,94,75,0.00,40.00,7,4,17,0.97
2013-7-5,76,69,65,73,68,65,100,97,84,0.00,40.00,6,4,14,0.72
2013-7-6,80,70,62,71,66,62,100,91,61,0.00,40.00,6,3,14,0.09
2013-7-7,77,67,63,72,66,63,100,97,79,0.00,40.00,8,3,17,0.30
2013-7-8,76,65,60,67,63,60,100,93,66,0.00,40.00,5,3,11,0.01
2013-7-9,79,70,62,72,67,62,100,91,73,0.00,40.00,4,3,9,0.04
2013-7-10,76,67,64,73,64,-100,100,95,87,0.00,40.00,6,3,11,0.30
2013-7-11,77,67,62,71,66,62,100,95,72,0.00,40.00,3,2,10,0.11
2013-7-12,73,64,58,66,61,58,100,93,67,0.00,40.00,4,3,11,0.07
2013-7-13,73,66,60,68,64,60,100,94,79,0.00,40.00,5,3,15,0.01
2013-7-14,79,70,64,68,66,62,100,86,58,0.00,40.00,7,5,20,0.02
2013-7-15,87,72,65,73,67,65,100,85,51,0.00,40.00,4,2,9,0.00
2013-7-16,86,75,67,73,68,67,100,83,53,0.00,40.00,4,3,10,0.08
2013-7-17,84,73,66,76,70,66,100,93,65,0.00,40.00,4,2,9,0.08
2013-7-18,83,74,65,77,70,65,100,91,76,0.00,40.00,3,2,10,0.00
2013-7-19,85,71,65,75,70,65,100,96,67,0.00,40.00,5,2,12,0.00
2013-7-20,84,72,65,72,66,-100,100,85,52,0.00,40.00,6,4,14,0.00
2013-7-21,79,68,62,74,67,62,100,96,69,0.00,40.00,7,2,14,0.64
2013-7-22,80,69,65,76,68,65,100,97,68,0.00,40.00,4,2,13,0.33
2013-7-23,78,70,64,69,66,64,100,88,63,0.00,40.00,7,4,20,0.24
2013-7-24,78,69,60,68,64,57,100,84,49,0.00,40.00,6,4,11,0.00
2013-7-25,77,64,55,61,57,54,100,81,50,0.00,40.00,4,2,10,0.00
2013-7-26,78,65,53,62,55,47,100,75,34,0.00,40.00,5,3,11,0.00
2013-7-27,66,63,61,66,63,61,100,100,100,0.00,40.00,6,3,16,1.62
2013-7-28,74,65,58,66,60,56,100,87,54,0.00,40.00,6,4,12,1.10
2013-7-29,71,60,50,57,53,50,100,80,50,0.00,40.00,5,3,12,0.01
2013-7-30,76,63,51,62,56,51,100,80,53,0.00,40.00,5,3,9,0.00
2013-7-31,66,60,58,64,60,58,100,99,90,0.00,40.00,5,2,10,0.33
2013-8-1,76,65,59,69,62,59,100,92,70,0.00,40.00,5,3,12,0.22
2013-8-2,75,66,58,66,58,54,100,79,50,0.00,40.00,5,3,10,0.01
2013-8-3,74,65,60,67,61,57,100,87,65,0.00,40.00,5,3,12,0.00
2013-8-4,72,63,56,62,56,54,100,82,56,0.00,40.00,4,3,11,0.00
2013-8-5,74,62,50,58,54,50,100,81,49,0.00,40.00,5,3,11,0.00
2013-8-6,80,67,59,68,62,57,100,87,55,0.00,40.00,4,2,8,0.26
2013-8-7,76,68,64,72,67,64,100,98,85,0.00,40.00,5,3,16,0.39
2013-8-8,77,68,64,75,68,64,100,99,87,0.00,40.00,5,3,12,0.56
2013-8-9,78,70,67,73,69,67,100,96,79,0.00,40.00,6,5,20,0.39
2013-8-10,80,70,65,74,67,62,100,91,57,0.00,40.00,4,3,12,0.31
2013-8-11,76,67,63,73,67,63,100,99,86,0.00,40.00,4,2,7,0.25
2013-8-12,80,68,63,70,65,63,100,90,60,0.00,40.00,4,2,10,0.02
2013-8-13,75,66,60,71,62,-100,100,93,69,0.00,40.00,7,4,14,0.10
2013-8-14,66,57,49,60,51,46,100,83,52,0.00,40.00,5,3,12,0.10
2013-8-15,71,51,44,56,39,-100,100,78,48,0.00,40.00,4,3,11,0.00
2013-8-16,73,59,49,57,49,-100,100,77,48,0.00,40.00,5,3,9,0.00
2013-8-17,71,59,52,61,54,-100,100,89,54,0.00,40.00,5,2,14,0.01
2013-8-18,69,61,56,67,60,56,100,99,92,0.00,40.00,4,3,12,0.25
2013-8-19,76,62,60,69,53,-100,100,93,73,0.00,40.00,4,3,10,0.10
2013-8-20,82,66,56,71,60,-100,100,87,55,0.00,40.00,4,2,9,0.01
2013-8-21,78,67,62,73,66,62,100,97,79,0.00,40.00,4,2,14,0.41
2013-8-22,78,67,56,71,64,56,100,91,62,0.00,40.00,4,3,11,0.51
2013-8-23,73,65,57,68,64,57,100,96,75,0.00,40.00,4,3,11,0.21
2013-8-24,76,62,51,62,53,-100,100,78,48,0.00,40.00,4,2,11,0.21
2013-8-25,76,64,54,63,56,53,100,80,45,0.00,40.00,5,3,9,0.00
2013-8-26,79,65,52,64,58,52,100,79,47,0.00,40.00,4,3,10,0.00
2013-8-27,78,70,64,70,66,62,100,91,70,0.00,40.00,6,4,16,0.00
2013-8-28,78,72,67,74,69,64,100,92,69,0.00,40.00,8,5,17,2.37
2013-8-29,82,71,66,74,68,66,100,91,65,0.00,40.00,4,2,12,2.03
2013-8-30,82,69,61,71,66,61,100,91,62,0.00,40.00,4,2,9,0.01
2013-8-31,80,69,64,73,66,-100,100,92,63,0.00,40.00,5,4,12,0.00
2013-9-1,76,67,62,75,67,62,100,98,77,0.00,40.00,5,2,8,0.00
2013-9-2,80,69,62,71,65,61,100,87,53,0.00,40.00,6,3,12,0.00
2013-9-3,75,66,58,67,61,56,100,87,51,0.00,40.00,6,3,14,0.17
2013-9-4,79,61,50,61,56,50,100,85,48,0.00,40.00,4,3,11,0.00
2013-9-5,73,62,53,63,58,53,100,86,59,0.00,40.00,6,3,14,0.00
2013-9-6,75,61,51,59,55,50,100,83,42,0.00,40.00,4,2,9,0.00
2013-9-7,77,61,51,61,51,-100,100,75,38,0.00,40.00,4,2,9,0.00
2013-9-8,78,67,57,68,61,52,100,83,58,0.00,40.00,4,3,10,0.01
2013-9-9,73,66,62,69,65,62,100,97,83,0.00,40.00,4,2,9,0.01
2013-9-10,84,72,64,72,67,64,100,88,57,0.00,40.00,5,3,12,0.00
2013-9-11,83,70,64,75,68,64,100,93,64,0.00,40.00,4,2,9,0.00
2013-9-12,79,67,61,75,66,61,100,96,63,0.00,40.00,5,3,22,0.34
2013-9-13,66,58,51,61,53,45,100,85,48,0.00,40.00,6,4,14,0.04
2013-9-14,67,52,42,50,44,-100,100,80,41,0.00,40.00,4,3,10,0.01
2013-9-15,71,55,45,57,51,45,100,88,57,0.00,40.00,5,2,11,0.00
2013-9-16,60,56,49,59,56,49,100,98,90,0.00,40.00,6,3,13,0.00
2013-9-17,69,54,43,57,48,43,100,84,46,0.00,40.00,5,3,12,0.00
2013-9-18,56,48,45,56,48,45,100,100,100,0.00,40.00,4,2,9,0.00
2013-9-19,75,61,54,65,59,54,100,94,63,0.00,40.00,5,3,12,0.01
2013-9-20,74,64,60,71,63,60,100,99,83,0.00,40.00,6,2,11,0.01
2013-9-21,62,58,54,62,57,-100,100,99,100,0.00,40.00,8,3,16,0.61
2013-9-22,66,54,49,58,51,47,100,90,56,0.00,40.00,4,2,11,0.03
2013-9-23,70,52,41,51,47,41,100,86,44,0.00,40.00,4,2,8,0.00
2013-9-24,75,58,47,59,52,47,100,84,45,0.00,40.00,4,2,9,0.00
2013-9-25,65,58,54,62,57,54,100,97,75,0.00,40.00,4,2,6,0.01
2013-9-26,73,60,50,61,54,49,100,85,43,0.00,40.00,4,2,7,0.14
2013-9-27,71,57,47,59,51,46,100,82,43,0.00,40.00,5,3,11,0.01
2013-9-28,65,55,49,58,51,-100,100,89,53,0.00,40.00,5,3,10,0.00
2013-9-29,69,55,46,54,51,46,100,86,54,0.00,40.00,4,2,10,0.00
2013-9-30,68,57,48,60,55,48,100,93,65,0.00,40.00,5,2,10,0.00
2013-10-1,61,59,56,58,57,55,100,94,81,0.00,40.00,3,2,8,0.00
2013-10-2,75,62,53,65,56,53,100,84,50,0.00,40.00,4,2,9,0.00
2013-10-3,75,63,53,64,58,53,100,85,56,0.00,40.00,4,2,9,0.00
2013-10-4,79,65,55,66,60,55,100,86,55,0.00,40.00,4,2,11,0.00
2013-10-5,79,68,59,67,62,57,100,83,50,0.00,40.00,5,3,9,0.00
2013-10-6,77,66,59,66,61,55,100,86,52,0.00,40.00,8,4,19,0.00
2013-10-7,63,54,45,63,52,43,100,92,67,0.00,40.00,8,5,20,0.90
2013-10-8,65,51,39,46,41,38,100,75,37,0.00,40.00,7,4,11,0.01
2013-10-9,62,50,42,43,39,29,94,70,29,0.00,40.00,5,3,11,0.00
2013-10-10,66,57,45,63,56,45,100,96,83,0.00,40.00,5,4,11,0.05
2013-10-11,63,56,54,61,56,54,100,99,89,0.00,40.00,5,3,9,0.01
2013-10-12,63,57,54,63,56,-100,100,99,96,0.00,40.00,4,3,8,0.04
2013-10-13,67,59,54,62,57,54,100,96,79,0.00,40.00,4,3,8,0.02
2013-10-14,70,58,53,62,56,53,100,96,63,0.00,40.00,6,2,10,0.46
2013-10-15,67,56,49,56,50,40,100,82,39,0.00,40.00,5,3,9,0.23
2013-10-16,65,56,49,58,54,49,100,93,74,0.00,40.00,5,3,12,0.00
2013-10-17,59,56,45,59,56,45,100,100,100,0.00,40.00,7,4,21,0.43
2013-10-18,62,50,41,45,39,34,100,71,36,0.00,40.00,6,4,14,0.10
2013-10-19,55,46,40,52,43,-100,100,92,60,0.00,40.00,8,4,20,0.00
2013-10-20,57,44,34,38,32,26,98,67,36,0.00,40.00,6,4,18,0.00
2013-10-21,64,48,35,40,33,27,85,58,25,0.00,40.00,7,4,16,0.00
2013-10-22,53,47,38,46,40,34,99,78,60,0.00,40.00,8,5,17,0.00
2013-10-23,40,35,31,40,35,30,100,99,94,0.00,40.00,7,4,18,0.04
2013-10-24,35,31,29,32,29,25,100,93,73,0.00,40.00,6,4,19,0.03
2013-10-25,37,31,28,29,26,23,100,83,58,0.00,40.00,7,4,18,0.01
2013-10-26,50,34,22,31,22,-100,100,71,32,0.00,40.00,9,5,22,0.00
2013-10-27,55,44,37,36,31,26,88,61,39,0.00,40.00,8,5,21,0.00
2013-10-28,61,47,40,47,37,-100,100,73,41,0.00,40.00,6,3,12,0.00
2013-10-29,63,53,42,48,45,42,100,78,47,0.00,40.00,5,3,10,0.00
2013-10-30,56,52,48,56,52,48,100,98,88,0.00,40.00,7,4,11,0.12
2013-10-31,61,56,53,59,55,53,100,96,78,0.00,40.00,12,7,24,0.03
2013-11-1,66,58,51,61,50,36,100,80,42,0.00,40.00,13,8,29,0.49
2013-11-2,53,46,38,41,35,-100,100,70,45,0.00,40.00,8,6,22,0.02
2013-11-3,45,38,33,39,33,25,100,84,54,0.00,40.00,9,5,17,0.09
2013-11-4,46,37,29,26,24,15,77,59,42,0.00,40.00,6,4,11,0.01
2013-11-5,52,39,31,44,31,22,100,74,32,0.00,40.00,6,4,13,0.00
2013-11-6,60,51,43,53,47,43,100,88,63,0.00,40.00,10,6,16,0.00
2013-11-7,51,42,32,51,40,25,100,91,75,0.00,40.00,9,7,19,0.17
2013-11-8,40,34,31,29,22,20,91,64,46,0.00,40.00,8,6,26,0.01
2013-11-9,54,39,28,27,19,-100,81,52,24,0.00,40.00,9,5,20,0.00
2013-11-10,51,42,31,32,24,20,70,52,32,0.00,40.00,14,8,31,0.00
2013-11-11,58,44,30,25,17,6,79,42,15,0.00,40.00,8,6,14,0.00
2013-11-12,49,31,20,33,19,10,97,66,20,0.00,40.00,10,8,18,0.00
2013-11-13,32,23,18,19,13,11,96,66,42,0.00,40.00,9,6,19,0.02
2013-11-14,54,38,22,14,11,3,63,36,20,0.00,40.00,7,5,11,0.01
2013-11-15,56,45,38,41,17,6,100,37,14,0.00,40.00,6,4,11,0.11
2013-11-16,56,45,40,53,44,-100,100,97,83,0.00,40.00,8,3,14,0.14
2013-11-17,57,52,47,57,52,47,100,100,99,0.00,40.00,11,6,18,0.22
2013-11-18,54,47,36,54,31,22,100,57,30,0.00,40.00,12,8,26,0.36
2013-11-19,35,31,25,24,22,20,82,70,57,0.00,40.00,12,6,28,0.00
2013-11-20,44,33,25,21,17,10,85,55,27,0.00,40.00,7,5,15,0.00
2013-11-21,43,37,29,41,33,18,96,84,63,0.00,40.00,6,3,10,0.00
2013-11-22,52,48,43,52,48,43,100,100,99,0.00,40.00,8,6,17,0.03
2013-11-23,42,33,17,42,26,-100,100,79,50,0.00,40.00,10,6,25,0.02
2013-11-24,19,14,9,8,1,-1,73,57,44,0.00,40.00,12,7,22,0.00
2013-11-25,37,23,9,8,3,-1,76,45,19,0.00,40.00,7,5,11,0.00
2013-11-26,40,35,25,40,35,25,100,100,100,0.00,40.00,6,4,14,2.16
2013-11-27,38,24,15,38,23,11,100,95,83,0.00,40.00,11,8,28,0.82
2013-11-28,32,22,14,16,14,11,91,71,48,0.00,40.00,9,6,26,0.02
2013-11-29,38,28,19,18,15,10,90,60,39,0.00,40.00,6,4,15,0.01
2013-11-30,35,26,20,21,18,-100,93,73,54,0.00,40.00,5,5,9,0.00
2013-12-1,47,35,24,30,24,18,86,64,41,0.00,40.00,7,4,17,0.00
2013-12-2,45,41,37,33,31,28,78,69,62,0.00,40.00,5,3,9,0.00
2013-12-3,49,41,35,39,36,33,96,83,68,0.00,40.00,6,3,11,0.00
2013-12-4,58,49,41,49,45,40,100,88,65,0.00,40.00,7,4,12,0.00
2013-12-5,60,52,45,55,52,45,100,98,80,0.00,40.00,9,6,20,0.02
2013-12-6,55,47,36,55,47,36,100,100,100,0.00,40.00,7,4,23,1.66
2013-12-7,36,28,22,36,27,-100,100,98,94,0.00,40.00,6,4,11,0.74
2013-12-8,27,24,22,27,24,22,100,100,98,0.00,40.00,6,4,14,0.00
2013-12-9,43,35,29,43,35,28,100,100,97,0.00,40.00,6,4,14,1.10
2013-12-10,29,25,20,29,22,9,100,87,61,0.00,40.00,8,5,22,0.01
2013-12-11,35,25,15,17,13,10,87,61,38,0.00,40.00,8,6,19,0.27
2013-12-12,24,18,12,15,4,-3,80,55,32,0.00,40.00,10,7,22,0.02
2013-12-13,36,26,17,13,6,-1,52,41,31,0.00,40.00,7,5,16,0.05
2013-12-14,30,28,25,30,25,-100,100,94,36,0.00,40.00,7,3,14,0.02
2013-12-15,34,27,24,34,27,23,100,99,93,0.00,40.00,9,6,20,0.00
2013-12-16,32,27,22,30,26,22,100,95,80,0.00,40.00,8,5,17,0.10
2013-12-17,35,32,25,35,32,25,100,99,93,0.00,40.00,9,6,20,0.25
2013-12-18,31,26,19,24,18,14,100,76,57,0.00,40.00,7,6,19,0.28
2013-12-19,52,42,25,25,18,12,64,40,31,0.00,40.00,10,7,21,0.01
2013-12-20,51,48,45,47,27,18,88,46,32,0.00,40.00,9,8,15,0.00
2013-12-21,62,53,48,59,44,-100,100,73,53,0.00,40.00,12,7,20,0.00
2013-12-22,61,54,51,60,54,51,100,100,98,0.00,40.00,14,7,27,0.74
2013-12-23,52,40,24,52,40,24,100,99,95,0.00,40.00,8,6,18,0.52
2013-12-24,25,19,9,24,15,3,100,85,61,0.00,40.00,10,5,19,0.01
2013-12-25,33,18,7,12,6,4,93,64,31,0.00,40.00,6,4,11,0.00
2013-12-26,33,27,21,20,12,6,71,53,40,0.00,40.00,12,6,22,0.00
2013-12-27,43,32,23,14,12,10,65,45,26,0.00,40.00,7,5,16,0.00
2013-12-28,49,37,31,18,14,-100,49,39,28,0.00,40.00,7,5,12,0.00
2013-12-29,42,37,33,40,34,20,100,92,48,0.00,40.00,10,5,21,1.59
2013-12-30,35,29,24,32,25,19,97,86,80,0.00,40.00,10,5,20,0.01
2013-12-31,28,24,21,21,16,12,83,70,55,0.00,40.00,19,8,34,0.00
2014-1-1,46,31,21,21,16,13,78,56,29,0.00,40.00,8,5,16,0.00
2014-1-2,34,29,16,31,23,11,100,78,53,0.00,40.00,10,5,27,0.00